createdAt,value
2022-08-07T00:01:44.340Z,100552.75
2022-08-07T00:04:06.715Z,100559.13
2022-08-07T00:06:40.895Z,100556.66
2022-08-07T00:09:17.026Z,100554.03
2022-08-07T00:11:55.660Z,100556.09
2022-08-07T00:14:31.497Z,100554.09
2022-08-07T00:17:02.494Z,100542.59
2022-08-07T00:20:00.156Z,100549.97
2022-08-07T00:22:24.592Z,100549.37
2022-08-07T00:25:16.454Z,100552.69
2022-08-07T00:27:53.696Z,100550.00
2022-08-07T00:30:27.571Z,100543.22
2022-08-07T00:32:57.375Z,100541.78
2022-08-07T00:35:29.727Z,100539.09
2022-08-07T00:37:59.037Z,100544.47
2022-08-07T00:40:36.692Z,100550.88
2022-08-07T00:43:59.142Z,100543.88
2022-08-07T00:46:01.724Z,100549.25
2022-08-07T00:48:32.440Z,100557.50
2022-08-07T00:51:02.694Z,100561.00
2022-08-07T00:53:39.272Z,100559.53
2022-08-07T00:56:18.550Z,100560.41
2022-08-07T00:58:47.007Z,100553.34
2022-08-07T01:01:18.226Z,100557.53
2022-08-07T01:03:56.941Z,100554.84
2022-08-07T01:06:29.326Z,100557.72
2022-08-07T01:09:01.026Z,100557.72
2022-08-07T01:12:09.622Z,100554.22
2022-08-07T01:14:28.554Z,100546.38
2022-08-07T01:16:57.709Z,100553.59
2022-08-07T01:19:32.646Z,100558.56
2022-08-07T01:22:03.150Z,100564.75
2022-08-07T01:24:32.530Z,100548.34
2022-08-07T01:27:01.281Z,100566.25
2022-08-07T01:29:31.215Z,100563.09
2022-08-07T01:32:00.339Z,100553.69
2022-08-07T01:34:33.819Z,100564.59
2022-08-07T01:37:03.042Z,100561.69
2022-08-07T01:39:40.437Z,100571.81
2022-08-07T01:42:37.806Z,100566.44
2022-08-07T01:45:09.848Z,100566.03
2022-08-07T01:48:20.136Z,100564.41
2022-08-07T01:50:32.791Z,100561.09
2022-08-07T01:53:08.588Z,100563.59
2022-08-07T01:55:45.456Z,100572.06
2022-08-07T01:58:27.523Z,100571.47
2022-08-07T02:01:59.912Z,100567.13
2022-08-07T02:04:24.112Z,100571.66
2022-08-07T02:06:57.362Z,100582.22
2022-08-07T02:09:52.198Z,100579.34
2022-08-07T02:12:29.071Z,100577.28
2022-08-07T02:15:01.598Z,100579.59
2022-08-07T02:17:36.103Z,100573.00
2022-08-07T02:20:17.295Z,100577.53
2022-08-07T02:22:54.934Z,100577.34
2022-08-07T02:26:10.449Z,100586.88
2022-08-07T02:28:15.472Z,100583.56
2022-08-07T02:30:55.035Z,100581.50
2022-08-07T02:33:41.808Z,100584.81
2022-08-07T02:36:26.856Z,100582.75
2022-08-07T02:39:01.112Z,100578.66
2022-08-07T02:41:33.571Z,100590.63
2022-08-07T02:44:07.187Z,100589.16
2022-08-07T02:46:37.467Z,100596.16
2022-08-07T02:49:55.736Z,100591.44
2022-08-07T02:52:08.353Z,100602.97
2022-08-07T02:54:41.593Z,100600.94
2022-08-07T02:57:14.040Z,100599.06
2022-08-07T02:59:54.784Z,100594.53
2022-08-07T03:02:23.725Z,100591.66
2022-08-07T03:04:56.386Z,100594.31
2022-08-07T03:07:43.095Z,100606.50
2022-08-07T03:10:17.900Z,100594.31
2022-08-07T03:12:46.925Z,100609.94
2022-08-07T03:15:16.024Z,100609.31
2022-08-07T03:18:00.476Z,100593.84
2022-08-07T03:20:28.686Z,100610.34
2022-08-07T03:22:57.896Z,100613.22
2022-08-07T03:25:40.087Z,100616.31
2022-08-07T03:28:38.061Z,100630.09
2022-08-07T03:31:18.646Z,100622.88
2022-08-07T03:33:51.358Z,100620.59
2022-08-07T03:36:21.787Z,100619.75
2022-08-07T03:38:57.839Z,100618.94
2022-08-07T03:41:42.475Z,100626.34
2022-08-07T03:44:16.147Z,100614.38
2022-08-07T03:47:13.248Z,100604.91
2022-08-07T03:49:38.581Z,100620.34
2022-08-07T03:52:07.599Z,100625.06
2022-08-07T03:54:54.270Z,100617.06
2022-08-07T03:58:34.573Z,100619.72
2022-08-07T04:00:15.145Z,100622.81
2022-08-07T04:02:46.544Z,100632.28
2022-08-07T04:05:19.316Z,100625.91
2022-08-07T04:07:51.999Z,100635.97
2022-08-07T04:10:20.745Z,100634.94
2022-08-07T04:12:52.148Z,100631.03
2022-08-07T04:15:23.983Z,100636.81
2022-08-07T04:18:57.612Z,100638.06
2022-08-07T04:20:43.089Z,100640.94
2022-08-07T04:23:23.871Z,100631.44
2022-08-07T04:26:11.058Z,100644.44
2022-08-07T04:28:41.852Z,100652.91
2022-08-07T04:31:10.535Z,100652.72
2022-08-07T04:33:55.174Z,100657.66
2022-08-07T04:36:26.214Z,100656.84
2022-08-07T04:38:54.531Z,100668.34
2022-08-07T04:41:22.178Z,100672.66
2022-08-07T04:44:09.663Z,100666.47
2022-08-07T04:47:04.906Z,100669.81
2022-08-07T04:49:57.392Z,100671.66
2022-08-07T04:52:32.336Z,100680.28
2022-08-07T04:55:15.521Z,100668.81
2022-08-07T04:58:33.779Z,100665.72
2022-08-07T05:01:01.760Z,100677.72
2022-08-07T05:04:12.418Z,100677.72
2022-08-07T05:07:36.494Z,100683.09
2022-08-07T05:10:19.616Z,100685.34
2022-08-07T05:12:58.416Z,100678.56
2022-08-07T05:15:37.617Z,100683.31
2022-08-07T05:18:10.365Z,100677.13
2022-08-07T05:20:45.809Z,100686.81
2022-08-07T05:23:19.662Z,100691.97
2022-08-07T05:26:13.221Z,100686.62
2022-08-07T05:28:46.486Z,100691.56
2022-08-07T05:31:19.296Z,100693.59
2022-08-07T05:33:51.374Z,100659.84
2022-08-07T05:36:35.612Z,100696.91
2022-08-07T05:40:06.461Z,100694.47
2022-08-07T05:42:01.468Z,100698.97
2022-08-07T05:44:33.705Z,100696.91
2022-08-07T05:47:18.148Z,100706.41
2022-08-07T05:49:52.119Z,100706.62
2022-08-07T05:52:20.590Z,100706.19
2022-08-07T05:54:58.743Z,100704.38
2022-08-07T05:57:34.594Z,100704.16
2022-08-07T06:00:08.227Z,100707.66
2022-08-07T06:02:50.445Z,100717.72
2022-08-07T06:05:28.334Z,100705.91
2022-08-07T06:08:09.069Z,100706.31
2022-08-07T06:10:51.238Z,100719.69
2022-08-07T06:13:31.516Z,100716.03
2022-08-07T06:16:10.237Z,100722.41
2022-08-07T06:18:43.103Z,100733.13
2022-08-07T06:22:16.519Z,100734.53
2022-08-07T06:24:46.122Z,100726.41
2022-08-07T06:26:56.820Z,100733.94
2022-08-07T06:29:29.607Z,100720.06
2022-08-07T06:31:57.411Z,100728.69
2022-08-07T06:34:29.741Z,100731.63
2022-08-07T06:36:58.476Z,100732.19
2022-08-07T06:40:17.476Z,100739.69
2022-08-07T06:42:19.565Z,100741.31
2022-08-07T06:45:02.412Z,100737.63
2022-08-07T06:47:38.887Z,100741.78
2022-08-07T06:50:19.199Z,100732.72
2022-08-07T06:52:53.211Z,100733.56
2022-08-07T06:56:00.820Z,100735.59
2022-08-07T06:58:24.491Z,100705.50
2022-08-07T07:00:57.241Z,100745.03
2022-08-07T07:03:26.522Z,100735.78
2022-08-07T07:06:13.067Z,100743.19
2022-08-07T07:08:46.656Z,100745.94
2022-08-07T07:12:08.216Z,100744.53
2022-08-07T07:14:08.347Z,100750.34
2022-08-07T07:16:49.595Z,100758.13
2022-08-07T07:19:55.071Z,100756.66
2022-08-07T07:22:35.930Z,100757.97
2022-08-07T07:26:30.460Z,100763.00
2022-08-07T07:28:42.776Z,100766.44
2022-08-07T07:31:08.063Z,100770.91
2022-08-07T07:33:39.345Z,100774.12
2022-08-07T07:36:12.929Z,100770.62
2022-08-07T07:38:43.544Z,100770.72
2022-08-07T07:41:16.491Z,100771.56
2022-08-07T07:44:14.218Z,100772.81
2022-08-07T07:46:55.648Z,100774.12
2022-08-07T07:50:35.015Z,100767.91
2022-08-07T07:52:16.468Z,100768.75
2022-08-07T07:54:50.707Z,100771.72
2022-08-07T07:57:43.948Z,100773.41
2022-08-07T08:00:11.167Z,100771.47
2022-08-07T08:03:04.570Z,100774.50
2022-08-07T08:05:42.835Z,100776.59
2022-08-07T08:08:35.470Z,100774.47
2022-08-07T08:11:04.293Z,100769.34
2022-08-07T08:13:52.909Z,100764.50
2022-08-07T08:16:29.986Z,100765.63
2022-08-07T08:19:00.490Z,100760.56
2022-08-07T08:22:07.710Z,100758.09
2022-08-07T08:25:18.598Z,100759.37
2022-08-07T08:27:56.647Z,100762.06
2022-08-07T08:30:31.968Z,100759.37
2022-08-07T08:33:03.620Z,100760.25
2022-08-07T08:35:43.124Z,100763.19
2022-08-07T08:38:17.521Z,100769.53
2022-08-07T08:40:53.622Z,100748.75
2022-08-07T08:43:32.110Z,100765.47
2022-08-07T08:46:21.966Z,100766.09
2022-08-07T08:49:46.343Z,100767.53
2022-08-07T08:52:36.197Z,100762.19
2022-08-07T08:55:53.156Z,100763.16
2022-08-07T08:58:37.606Z,100766.72
2022-08-07T09:01:18.427Z,100770.13
2022-08-07T09:04:07.776Z,100746.59
2022-08-07T09:06:48.318Z,100775.97
2022-08-07T09:09:43.655Z,100775.63
2022-08-07T09:12:31.609Z,100780.44
2022-08-07T09:16:22.554Z,100768.25
2022-08-07T09:18:27.904Z,100771.53
2022-08-07T09:21:04.454Z,100763.75
2022-08-07T09:24:31.666Z,100755.91
2022-08-07T09:26:38.498Z,100760.13
2022-08-07T09:30:06.239Z,100756.78
2022-08-07T09:32:53.577Z,100758.44
2022-08-07T09:36:05.339Z,100764.94
2022-08-07T09:38:37.437Z,100750.22
2022-08-07T09:41:58.456Z,100755.50
2022-08-07T09:44:58.735Z,100754.59
2022-08-07T09:48:04.943Z,100747.88
2022-08-07T09:50:34.938Z,100748.47
2022-08-07T09:53:05.671Z,100752.81
2022-08-07T09:56:10.337Z,100748.25
2022-08-07T09:59:02.524Z,100749.88
2022-08-07T10:01:54.462Z,100749.41
2022-08-07T10:04:52.942Z,100747.53
2022-08-07T10:08:02.533Z,100746.03
2022-08-07T10:11:17.064Z,100732.03
2022-08-07T10:14:00.534Z,100724.72
2022-08-07T10:16:59.552Z,100732.03
2022-08-07T10:19:56.112Z,100728.41
2022-08-07T10:22:45.451Z,100733.81
2022-08-07T10:25:24.996Z,100725.09
2022-08-07T10:28:24.156Z,100720.53
2022-08-07T10:31:28.164Z,100712.59
2022-08-07T10:34:17.843Z,100719.19
2022-08-07T10:36:58.380Z,100707.34
2022-08-07T10:39:57.530Z,100707.47
2022-08-07T10:43:01.955Z,100709.75
2022-08-07T10:45:44.154Z,100712.03
2022-08-07T10:48:23.848Z,100717.91
2022-08-07T10:51:00.020Z,100701.44
2022-08-07T10:53:44.231Z,100689.16
2022-08-07T10:56:36.389Z,100708.91
2022-08-07T10:59:21.165Z,100698.81
2022-08-07T11:02:33.099Z,100697.09
2022-08-07T11:05:35.743Z,100694.37
2022-08-07T11:08:39.058Z,100697.56
2022-08-07T11:11:20.240Z,100694.81
2022-08-07T11:14:43.662Z,100693.41
2022-08-07T11:17:01.929Z,100705.88
2022-08-07T11:19:58.199Z,100701.72
2022-08-07T11:22:33.363Z,100690.66
2022-08-07T11:25:21.270Z,100693.09
2022-08-07T11:28:04.759Z,100700.56
2022-08-07T11:30:51.420Z,100693.41
2022-08-07T11:33:53.580Z,100696.41
2022-08-07T11:36:53.875Z,100700.22
2022-08-07T11:39:59.407Z,100697.28
2022-08-07T11:42:44.896Z,100682.94
2022-08-07T11:45:53.699Z,100681.63
2022-08-07T11:49:04.362Z,100681.41
2022-08-07T11:51:51.835Z,100679.16
2022-08-07T11:54:54.552Z,100673.63
2022-08-07T11:58:01.500Z,100681.37
2022-08-07T12:00:40.441Z,100671.94
2022-08-07T12:03:41.499Z,100675.88
2022-08-07T12:06:38.881Z,100668.84
2022-08-07T12:09:23.200Z,100666.72
2022-08-07T12:12:09.347Z,100672.97
2022-08-07T12:15:16.993Z,100672.03
2022-08-07T12:18:12.264Z,100662.59
2022-08-07T12:20:49.214Z,100659.91
2022-08-07T12:24:04.747Z,100654.09
2022-08-07T12:26:46.691Z,100654.69
2022-08-07T12:29:37.527Z,100650.06
2022-08-07T12:32:18.466Z,100648.59
2022-08-07T12:34:49.583Z,100644.50
2022-08-07T12:37:23.351Z,100648.91
2022-08-07T12:39:58.818Z,100649.78
2022-08-07T12:42:32.038Z,100646.94
2022-08-07T12:45:07.187Z,100645.72
2022-08-07T12:47:53.585Z,100640.72
2022-08-07T12:50:54.782Z,100646.69
2022-08-07T12:54:02.794Z,100647.16
2022-08-07T12:56:37.179Z,100641.53
2022-08-07T12:59:08.655Z,100641.06
2022-08-07T13:02:33.035Z,100639.66
2022-08-07T13:06:03.703Z,100638.00
2022-08-07T13:08:18.953Z,100632.88
2022-08-07T13:11:14.239Z,100628.19
2022-08-07T13:14:08.006Z,100623.13
2022-08-07T13:16:43.436Z,100615.12
2022-08-07T13:19:51.992Z,100621.66
2022-08-07T13:22:52.571Z,100622.12
2022-08-07T13:25:30.066Z,100616.34
2022-08-07T13:28:10.904Z,100610.91
2022-08-07T13:31:02.101Z,100609.44
2022-08-07T13:34:30.565Z,100604.56
2022-08-07T13:36:43.396Z,100608.38
2022-08-07T13:39:28.503Z,100605.88
2022-08-07T13:42:18.905Z,100610.44
2022-08-07T13:44:55.424Z,100598.00
2022-08-07T13:48:06.132Z,100590.25
2022-08-07T13:50:32.720Z,100589.03
2022-08-07T13:53:21.821Z,100586.75
2022-08-07T13:55:54.852Z,100586.75
2022-08-07T13:58:50.409Z,100574.56
2022-08-07T14:01:28.540Z,100572.47
2022-08-07T14:04:12.809Z,100576.31
2022-08-07T14:06:45.835Z,100580.88
2022-08-07T14:10:02.605Z,100572.59
2022-08-07T14:12:27.339Z,100580.19
2022-08-07T14:15:04.688Z,100573.47
2022-08-07T14:18:28.057Z,100571.91
2022-08-07T14:20:41.127Z,100571.44
2022-08-07T14:23:31.462Z,100571.84
2022-08-07T14:26:28.007Z,100572.78
2022-08-07T14:29:04.527Z,100575.66
2022-08-07T14:31:56.529Z,100572.37
2022-08-07T14:34:30.345Z,100571.94
2022-08-07T14:37:01.790Z,100562.59
2022-08-07T14:40:18.193Z,100570.78
2022-08-07T14:42:32.420Z,100564.12
2022-08-07T14:47:53.049Z,100569.13
2022-08-07T14:50:28.848Z,100561.63
2022-08-07T14:55:56.233Z,100554.28
2022-08-07T14:58:28.246Z,100559.94
2022-08-07T15:00:59.573Z,100565.97
2022-08-07T15:03:52.599Z,100555.16
2022-08-07T15:06:25.213Z,100562.81
2022-08-07T15:08:55.010Z,100566.44
2022-08-07T15:11:53.124Z,100561.47
2022-08-07T15:14:22.654Z,100560.41
2022-08-07T15:17:02.757Z,100561.25
2022-08-07T15:20:23.561Z,100553.62
2022-08-07T15:22:33.551Z,100550.97
2022-08-07T15:25:17.243Z,100547.94
2022-08-07T15:28:01.981Z,100544.12
2022-08-07T15:37:03.330Z,100546.22
2022-08-07T15:39:10.392Z,100540.34
2022-08-07T15:42:46.105Z,100545.47
2022-08-07T15:44:52.094Z,100546.44
2022-08-07T15:48:01.159Z,100534.09
2022-08-07T15:53:13.088Z,100528.44
2022-08-07T15:56:02.278Z,100534.63
2022-08-07T15:58:58.845Z,100534.91
2022-08-07T16:01:38.785Z,100537.69
2022-08-07T16:04:15.552Z,100530.53
2022-08-07T16:06:51.939Z,100531.63
2022-08-07T16:09:41.013Z,100537.00
2022-08-07T16:12:28.537Z,100532.09
2022-08-07T16:15:42.148Z,100535.53
2022-08-07T16:18:49.326Z,100546.69
2022-08-07T16:22:05.243Z,100531.47
2022-08-07T16:24:52.557Z,100524.91
2022-08-07T16:27:39.732Z,100524.84
2022-08-07T16:30:30.217Z,100526.50
2022-08-07T16:34:06.835Z,100533.50
2022-08-07T16:36:32.116Z,100531.28
2022-08-07T16:39:21.062Z,100535.31
2022-08-07T16:42:36.577Z,100532.00
2022-08-07T16:46:33.694Z,100528.75
2022-08-07T16:48:34.471Z,100528.44
2022-08-07T16:52:48.715Z,100521.53
2022-08-07T16:55:11.462Z,100540.53
2022-08-07T16:58:02.156Z,100541.56
2022-08-07T17:00:41.699Z,100544.22
2022-08-07T17:03:59.539Z,100555.78
2022-08-07T17:06:44.880Z,100554.12
2022-08-07T17:10:06.053Z,100555.66
2022-08-07T17:13:01.002Z,100559.37
2022-08-07T17:15:50.572Z,100560.38
2022-08-07T17:18:32.063Z,100553.03
2022-08-07T17:21:02.145Z,100555.91
2022-08-07T17:24:01.475Z,100554.78
2022-08-07T17:26:50.175Z,100556.59
2022-08-07T17:30:15.416Z,100561.41
2022-08-07T17:32:30.526Z,100562.09
2022-08-07T17:35:51.267Z,100560.34
2022-08-07T17:38:50.265Z,100565.13
2022-08-07T17:42:02.086Z,100560.16
2022-08-07T17:44:34.061Z,100557.84
2022-08-07T17:47:38.332Z,100549.06
2022-08-07T17:50:19.698Z,100564.62
2022-08-07T17:54:00.151Z,100549.22
2022-08-07T17:56:32.706Z,100560.59
2022-08-07T17:59:20.113Z,100565.09
2022-08-07T18:01:57.639Z,100570.16
2022-08-07T18:04:51.771Z,100581.16
2022-08-07T18:07:28.513Z,100572.16
2022-08-07T18:12:07.257Z,100582.06
2022-08-07T18:13:55.446Z,100580.34
2022-08-07T18:17:18.707Z,100582.63
2022-08-07T18:21:10.228Z,100585.72
2022-08-07T18:23:42.634Z,100586.19
2022-08-07T18:26:01.526Z,100588.66
2022-08-07T18:29:04.361Z,100589.87
2022-08-07T18:32:05.969Z,100590.03
2022-08-07T18:35:08.030Z,100589.69
2022-08-07T18:38:57.300Z,100593.13
2022-08-07T18:40:57.729Z,100593.94
2022-08-07T18:43:57.487Z,100593.25
2022-08-07T18:46:47.310Z,100604.41
2022-08-07T18:50:32.679Z,100599.50
2022-08-07T18:52:54.355Z,100601.88
2022-08-07T18:55:41.844Z,100597.91
2022-08-07T18:58:25.469Z,100604.59
2022-08-07T19:02:17.634Z,100604.34
2022-08-07T19:04:13.227Z,100612.22
2022-08-07T19:06:49.690Z,100613.63
2022-08-07T19:09:56.960Z,100612.91
2022-08-07T19:12:58.101Z,100616.34
2022-08-07T19:16:05.959Z,100611.06
2022-08-07T19:18:34.794Z,100626.28
2022-08-07T19:21:51.043Z,100625.59
2022-08-07T19:24:38.311Z,100626.19
2022-08-07T19:28:57.422Z,100620.31
2022-08-07T19:31:01.410Z,100626.19
2022-08-07T19:33:10.116Z,100630.37
2022-08-07T19:35:43.717Z,100636.28
2022-08-07T19:38:16.064Z,100640.22
2022-08-07T19:40:50.714Z,100644.06
2022-08-07T19:43:48.799Z,100646.84
2022-08-07T19:46:22.445Z,100652.12
2022-08-07T19:49:04.947Z,100655.06
2022-08-07T19:51:51.311Z,100653.28
2022-08-07T19:54:32.758Z,100655.22
2022-08-07T19:57:59.984Z,100664.13
2022-08-07T19:59:57.123Z,100662.16
2022-08-07T20:02:31.901Z,100668.66
2022-08-07T20:05:04.002Z,100669.94
2022-08-07T20:07:47.655Z,100671.47
2022-08-07T20:10:38.387Z,100669.31
2022-08-07T20:13:31.964Z,100669.91
2022-08-07T20:16:03.428Z,100675.91
2022-08-07T20:18:34.690Z,100671.19
2022-08-07T20:21:14.328Z,100673.53
2022-08-07T20:24:00.417Z,100674.31
2022-08-07T20:26:38.686Z,100676.47
2022-08-07T20:29:49.157Z,100675.75
2022-08-07T20:32:06.312Z,100680.16
2022-08-07T20:34:50.717Z,100678.75
2022-08-07T20:37:33.968Z,100682.94
2022-08-07T20:40:05.350Z,100685.09
2022-08-07T20:42:56.600Z,100681.31
2022-08-07T20:45:32.874Z,100685.25
2022-08-07T20:48:30.259Z,100682.78
2022-08-07T20:51:04.273Z,100689.88
2022-08-07T20:54:03.370Z,100684.94
2022-08-07T20:56:33.551Z,100687.63
2022-08-07T20:59:05.846Z,100686.22
2022-08-07T21:01:46.039Z,100683.12
2022-08-07T21:04:31.450Z,100693.31
2022-08-07T21:07:04.345Z,100690.06
2022-08-07T21:09:53.104Z,100689.66
2022-08-07T21:12:31.179Z,100691.75
2022-08-07T21:15:03.207Z,100682.78
2022-08-07T21:18:17.399Z,100691.91
2022-08-07T21:20:29.701Z,100705.37
2022-08-07T21:23:08.605Z,100704.16
2022-08-07T21:26:03.459Z,100702.75
2022-08-07T21:28:51.953Z,100703.25
2022-08-07T21:31:31.471Z,100705.16
2022-08-07T21:34:14.109Z,100703.72
2022-08-07T21:36:53.688Z,100704.25
2022-08-07T21:39:46.392Z,100713.75
2022-08-07T21:42:42.902Z,100717.88
2022-08-07T21:46:09.314Z,100714.41
2022-08-07T21:48:42.495Z,100717.50
2022-08-07T21:51:54.678Z,100724.16
2022-08-07T21:54:34.811Z,100721.91
2022-08-07T21:57:39.461Z,100726.13
2022-08-07T22:00:22.788Z,100722.63
2022-08-07T22:03:05.693Z,100716.69
2022-08-07T22:05:46.257Z,100721.84
2022-08-07T22:08:20.148Z,100720.62
2022-08-07T22:10:52.246Z,100717.53
2022-08-07T22:13:23.974Z,100723.53
2022-08-07T22:16:39.638Z,100719.84
2022-08-07T22:19:29.231Z,100716.53
2022-08-07T22:22:20.849Z,100703.41
2022-08-07T22:25:05.714Z,100725.69
2022-08-07T22:28:20.103Z,100720.09
2022-08-07T22:30:58.633Z,100725.28
2022-08-07T22:33:57.215Z,100724.87
2022-08-07T22:36:42.669Z,100725.50
2022-08-07T22:39:53.111Z,100730.88
2022-08-07T22:42:26.038Z,100728.19
2022-08-07T22:45:02.046Z,100720.38
2022-08-07T22:47:53.085Z,100717.31
2022-08-07T22:50:38.960Z,100706.59
2022-08-07T22:54:07.611Z,100715.47
2022-08-07T22:56:40.125Z,100720.84
2022-08-07T22:59:21.951Z,100720.03
2022-08-07T23:02:04.876Z,100728.50
2022-08-07T23:06:09.714Z,100727.66
2022-08-07T23:08:07.353Z,100730.97
2022-08-07T23:11:13.319Z,100730.28
2022-08-07T23:14:15.358Z,100718.16
2022-08-07T23:17:01.280Z,100721.84
2022-08-07T23:19:57.886Z,100723.50
2022-08-07T23:23:05.135Z,100732.16
2022-08-07T23:25:49.221Z,100721.22
2022-08-07T23:28:53.410Z,100725.34
2022-08-07T23:32:49.221Z,100720.78
2022-08-07T23:34:51.359Z,100718.94
2022-08-07T23:37:30.389Z,100723.88
2022-08-07T23:40:10.309Z,100718.50
2022-08-07T23:43:02.511Z,100719.53
2022-08-07T23:46:02.268Z,100706.72
2022-08-07T23:48:51.968Z,100727.53
2022-08-07T23:53:05.300Z,100728.53
2022-08-07T23:54:35.868Z,100733.03
2022-08-07T23:57:23.539Z,100734.06
